sensor_id;sensor_type;location;lat;lon;timestamp;temperature;humidity
21895;DHT22;11112;51.270;7.224;2023-09-19T00:00:36;19.50;98.70
21895;DHT22;11112;51.270;7.224;2023-09-19T00:03:06;19.50;98.70
21895;DHT22;11112;51.270;7.224;2023-09-19T00:05:36;19.50;98.80
21895;DHT22;11112;51.270;7.224;2023-09-19T00:08:05;19.50;98.60
21895;DHT22;11112;51.270;7.224;2023-09-19T00:10:33;19.50;98.50
21895;DHT22;11112;51.270;7.224;2023-09-19T00:13:02;19.40;98.40
21895;DHT22;11112;51.270;7.224;2023-09-19T00:15:36;19.40;98.40
21895;DHT22;11112;51.270;7.224;2023-09-19T00:18:05;19.40;98.30
21895;DHT22;11112;51.270;7.224;2023-09-19T00:20:32;19.40;98.20
21895;DHT22;11112;51.270;7.224;2023-09-19T00:23:02;19.40;98.30
21895;DHT22;11112;51.270;7.224;2023-09-19T00:25:34;19.40;98.40
21895;DHT22;11112;51.270;7.224;2023-09-19T00:28:02;19.40;98.30
21895;DHT22;11112;51.270;7.224;2023-09-19T00:30:30;19.30;98.40
21895;DHT22;11112;51.270;7.224;2023-09-19T00:32:58;19.30;98.40
21895;DHT22;11112;51.270;7.224;2023-09-19T00:35:27;19.30;98.30
21895;DHT22;11112;51.270;7.224;2023-09-19T00:37:55;19.30;98.20
21895;DHT22;11112;51.270;7.224;2023-09-19T00:40:24;19.30;98.40
21895;DHT22;11112;51.270;7.224;2023-09-19T00:42:57;19.30;98.20
21895;DHT22;11112;51.270;7.224;2023-09-19T00:45:25;19.30;98.20
21895;DHT22;11112;51.270;7.224;2023-09-19T00:47:54;19.30;98.10
21895;DHT22;11112;51.270;7.224;2023-09-19T00:50:24;19.30;98.10
21895;DHT22;11112;51.270;7.224;2023-09-19T00:52:54;19.30;98.00
21895;DHT22;11112;51.270;7.224;2023-09-19T00:55:25;19.30;98.00
21895;DHT22;11112;51.270;7.224;2023-09-19T00:57:56;19.30;97.90
21895;DHT22;11112;51.270;7.224;2023-09-19T01:00:24;19.20;97.90
21895;DHT22;11112;51.270;7.224;2023-09-19T01:02:51;19.20;98.00
21895;DHT22;11112;51.270;7.224;2023-09-19T01:05:19;19.20;97.90
21895;DHT22;11112;51.270;7.224;2023-09-19T01:07:46;19.20;97.90
21895;DHT22;11112;51.270;7.224;2023-09-19T01:10:16;19.20;97.80
21895;DHT22;11112;51.270;7.224;2023-09-19T01:12:52;19.10;97.80
21895;DHT22;11112;51.270;7.224;2023-09-19T01:15:28;19.10;97.80
21895;DHT22;11112;51.270;7.224;2023-09-19T01:18:05;19.10;98.00
21895;DHT22;11112;51.270;7.224;2023-09-19T01:20:41;19.10;97.90
21895;DHT22;11112;51.270;7.224;2023-09-19T01:23:17;19.10;97.90
21895;DHT22;11112;51.270;7.224;2023-09-19T01:26:11;19.10;97.90
21895;DHT22;11112;51.270;7.224;2023-09-19T01:29:08;19.10;97.80
21895;DHT22;11112;51.270;7.224;2023-09-19T01:31:47;19.00;97.80
21895;DHT22;11112;51.270;7.224;2023-09-19T01:34:16;19.10;97.80
21895;DHT22;11112;51.270;7.224;2023-09-19T01:36:43;19.00;97.90
21895;DHT22;11112;51.270;7.224;2023-09-19T01:39:11;19.10;97.80
21895;DHT22;11112;51.270;7.224;2023-09-19T01:41:57;19.00;97.90
21895;DHT22;11112;51.270;7.224;2023-09-19T01:44:36;19.00;97.80
21895;DHT22;11112;51.270;7.224;2023-09-19T01:47:17;19.10;97.80
21895;DHT22;11112;51.270;7.224;2023-09-19T01:49:55;19.00;97.90
21895;DHT22;11112;51.270;7.224;2023-09-19T01:52:28;19.00;97.90
21895;DHT22;11112;51.270;7.224;2023-09-19T01:55:01;19.00;97.90
21895;DHT22;11112;51.270;7.224;2023-09-19T01:57:35;18.90;97.80
21895;DHT22;11112;51.270;7.224;2023-09-19T02:00:08;18.90;97.70
21895;DHT22;11112;51.270;7.224;2023-09-19T02:02:40;18.90;97.70
21895;DHT22;11112;51.270;7.224;2023-09-19T02:05:10;18.90;97.60
21895;DHT22;11112;51.270;7.224;2023-09-19T02:07:38;18.90;97.60
21895;DHT22;11112;51.270;7.224;2023-09-19T02:10:06;18.90;97.60
21895;DHT22;11112;51.270;7.224;2023-09-19T02:12:35;18.90;97.70
21895;DHT22;11112;51.270;7.224;2023-09-19T02:15:04;18.90;97.70
21895;DHT22;11112;51.270;7.224;2023-09-19T02:17:32;18.90;97.60
21895;DHT22;11112;51.270;7.224;2023-09-19T02:20:01;18.90;97.70
21895;DHT22;11112;51.270;7.224;2023-09-19T02:22:36;18.90;98.10
21895;DHT22;11112;51.270;7.224;2023-09-19T02:25:04;18.90;97.70
21895;DHT22;11112;51.270;7.224;2023-09-19T02:27:33;18.90;97.70
21895;DHT22;11112;51.270;7.224;2023-09-19T02:30:00;18.90;97.70
21895;DHT22;11112;51.270;7.224;2023-09-19T02:32:29;18.90;97.70
21895;DHT22;11112;51.270;7.224;2023-09-19T02:34:57;18.80;97.30
21895;DHT22;11112;51.270;7.224;2023-09-19T02:37:26;18.80;97.30
21895;DHT22;11112;51.270;7.224;2023-09-19T02:39:53;18.80;97.30
21895;DHT22;11112;51.270;7.224;2023-09-19T02:42:52;18.80;97.20
21895;DHT22;11112;51.270;7.224;2023-09-19T02:45:27;18.70;96.90
21895;DHT22;11112;51.270;7.224;2023-09-19T02:48:17;18.70;97.00
21895;DHT22;11112;51.270;7.224;2023-09-19T02:51:11;18.70;96.90
21895;DHT22;11112;51.270;7.224;2023-09-19T02:53:46;18.70;96.60
21895;DHT22;11112;51.270;7.224;2023-09-19T02:56:14;18.60;96.60
21895;DHT22;11112;51.270;7.224;2023-09-19T02:58:44;18.70;96.60
21895;DHT22;11112;51.270;7.224;2023-09-19T03:01:18;18.60;96.50
21895;DHT22;11112;51.270;7.224;2023-09-19T03:04:29;18.60;96.20
21895;DHT22;11112;51.270;7.224;2023-09-19T03:07:32;18.60;96.20
21895;DHT22;11112;51.270;7.224;2023-09-19T03:10:29;18.60;96.10
21895;DHT22;11112;51.270;7.224;2023-09-19T03:12:57;18.60;96.00
21895;DHT22;11112;51.270;7.224;2023-09-19T03:15:25;18.60;96.20
21895;DHT22;11112;51.270;7.224;2023-09-19T03:17:52;18.60;96.10
21895;DHT22;11112;51.270;7.224;2023-09-19T03:20:19;18.60;96.10
21895;DHT22;11112;51.270;7.224;2023-09-19T03:22:47;18.60;96.10
21895;DHT22;11112;51.270;7.224;2023-09-19T03:25:15;18.60;96.20
21895;DHT22;11112;51.270;7.224;2023-09-19T03:27:44;18.60;96.20
21895;DHT22;11112;51.270;7.224;2023-09-19T03:30:12;18.60;96.20
21895;DHT22;11112;51.270;7.224;2023-09-19T03:32:43;18.60;96.30
21895;DHT22;11112;51.270;7.224;2023-09-19T03:35:12;18.60;96.10
21895;DHT22;11112;51.270;7.224;2023-09-19T03:37:40;18.50;96.10
21895;DHT22;11112;51.270;7.224;2023-09-19T03:40:08;18.60;96.00
21895;DHT22;11112;51.270;7.224;2023-09-19T03:42:38;18.60;95.80
21895;DHT22;11112;51.270;7.224;2023-09-19T03:45:07;18.60;95.80
21895;DHT22;11112;51.270;7.224;2023-09-19T03:47:37;18.60;95.80
21895;DHT22;11112;51.270;7.224;2023-09-19T03:50:06;18.60;95.50
21895;DHT22;11112;51.270;7.224;2023-09-19T03:52:34;18.50;95.60
21895;DHT22;11112;51.270;7.224;2023-09-19T03:55:01;18.60;95.60
21895;DHT22;11112;51.270;7.224;2023-09-19T03:57:30;18.50;95.50
21895;DHT22;11112;51.270;7.224;2023-09-19T03:59:57;18.50;95.60
21895;DHT22;11112;51.270;7.224;2023-09-19T04:02:26;18.50;95.50
21895;DHT22;11112;51.270;7.224;2023-09-19T04:04:59;18.50;95.50
21895;DHT22;11112;51.270;7.224;2023-09-19T04:07:26;18.50;95.50
21895;DHT22;11112;51.270;7.224;2023-09-19T04:09:54;18.50;95.50
21895;DHT22;11112;51.270;7.224;2023-09-19T04:12:21;18.50;95.50
21895;DHT22;11112;51.270;7.224;2023-09-19T04:14:48;18.50;95.40
21895;DHT22;11112;51.270;7.224;2023-09-19T04:17:15;18.50;95.50
21895;DHT22;11112;51.270;7.224;2023-09-19T04:19:45;18.50;95.50
21895;DHT22;11112;51.270;7.224;2023-09-19T04:22:12;18.50;95.40
21895;DHT22;11112;51.270;7.224;2023-09-19T04:25:14;18.50;95.90
21895;DHT22;11112;51.270;7.224;2023-09-19T04:27:47;18.50;95.50
21895;DHT22;11112;51.270;7.224;2023-09-19T04:30:14;18.40;95.30
21895;DHT22;11112;51.270;7.224;2023-09-19T04:32:43;18.40;95.40
21895;DHT22;11112;51.270;7.224;2023-09-19T04:35:11;18.40;95.50
21895;DHT22;11112;51.270;7.224;2023-09-19T04:37:39;18.40;95.40
21895;DHT22;11112;51.270;7.224;2023-09-19T04:40:08;18.40;95.50
21895;DHT22;11112;51.270;7.224;2023-09-19T04:42:41;18.40;95.50
21895;DHT22;11112;51.270;7.224;2023-09-19T04:45:09;18.40;95.40
21895;DHT22;11112;51.270;7.224;2023-09-19T04:47:37;18.40;95.30
21895;DHT22;11112;51.270;7.224;2023-09-19T04:50:07;18.40;95.30
21895;DHT22;11112;51.270;7.224;2023-09-19T04:52:40;18.40;95.30
21895;DHT22;11112;51.270;7.224;2023-09-19T04:55:10;18.40;95.40
21895;DHT22;11112;51.270;7.224;2023-09-19T04:57:43;18.40;95.50
21895;DHT22;11112;51.270;7.224;2023-09-19T05:00:13;18.40;95.50
21895;DHT22;11112;51.270;7.224;2023-09-19T05:02:43;18.40;95.50
21895;DHT22;11112;51.270;7.224;2023-09-19T05:05:10;18.40;95.60
21895;DHT22;11112;51.270;7.224;2023-09-19T05:07:41;18.30;95.70
21895;DHT22;11112;51.270;7.224;2023-09-19T05:10:10;18.40;95.90
21895;DHT22;11112;51.270;7.224;2023-09-19T05:12:37;18.40;96.00
21895;DHT22;11112;51.270;7.224;2023-09-19T05:15:06;18.30;96.10
21895;DHT22;11112;51.270;7.224;2023-09-19T05:17:34;18.30;96.50
21895;DHT22;11112;51.270;7.224;2023-09-19T05:20:02;18.30;96.30
21895;DHT22;11112;51.270;7.224;2023-09-19T05:22:42;18.30;96.30
21895;DHT22;11112;51.270;7.224;2023-09-19T05:25:12;18.30;96.30
21895;DHT22;11112;51.270;7.224;2023-09-19T05:27:42;18.30;96.40
21895;DHT22;11112;51.270;7.224;2023-09-19T05:30:11;18.20;96.50
21895;DHT22;11112;51.270;7.224;2023-09-19T05:32:40;18.30;96.50
21895;DHT22;11112;51.270;7.224;2023-09-19T05:35:09;18.30;96.50
21895;DHT22;11112;51.270;7.224;2023-09-19T05:37:38;18.30;96.50
21895;DHT22;11112;51.270;7.224;2023-09-19T05:40:09;18.30;96.60
21895;DHT22;11112;51.270;7.224;2023-09-19T05:42:38;18.30;96.60
21895;DHT22;11112;51.270;7.224;2023-09-19T05:45:07;18.30;96.60
21895;DHT22;11112;51.270;7.224;2023-09-19T05:47:37;18.20;96.60
21895;DHT22;11112;51.270;7.224;2023-09-19T05:50:06;18.20;96.60
21895;DHT22;11112;51.270;7.224;2023-09-19T05:52:35;18.30;96.60
21895;DHT22;11112;51.270;7.224;2023-09-19T05:55:03;18.30;96.60
21895;DHT22;11112;51.270;7.224;2023-09-19T05:57:35;18.30;96.60
21895;DHT22;11112;51.270;7.224;2023-09-19T06:00:03;18.20;96.70
21895;DHT22;11112;51.270;7.224;2023-09-19T06:02:35;18.20;96.60
21895;DHT22;11112;51.270;7.224;2023-09-19T06:05:04;18.20;96.70
21895;DHT22;11112;51.270;7.224;2023-09-19T06:07:35;18.20;96.80
21895;DHT22;11112;51.270;7.224;2023-09-19T06:10:03;18.20;96.70
21895;DHT22;11112;51.270;7.224;2023-09-19T06:12:33;18.20;96.70
21895;DHT22;11112;51.270;7.224;2023-09-19T06:15:05;18.20;96.50
21895;DHT22;11112;51.270;7.224;2023-09-19T06:17:34;18.20;96.50
21895;DHT22;11112;51.270;7.224;2023-09-19T06:20:04;18.20;96.50
21895;DHT22;11112;51.270;7.224;2023-09-19T06:22:38;18.30;96.50
21895;DHT22;11112;51.270;7.224;2023-09-19T06:25:07;18.30;96.50
21895;DHT22;11112;51.270;7.224;2023-09-19T06:27:38;18.30;96.50
21895;DHT22;11112;51.270;7.224;2023-09-19T06:30:08;18.40;96.30
21895;DHT22;11112;51.270;7.224;2023-09-19T06:32:38;18.40;96.30
21895;DHT22;11112;51.270;7.224;2023-09-19T06:35:06;18.30;96.30
21895;DHT22;11112;51.270;7.224;2023-09-19T06:37:36;18.40;96.40
21895;DHT22;11112;51.270;7.224;2023-09-19T06:40:06;18.40;96.40
21895;DHT22;11112;51.270;7.224;2023-09-19T06:42:40;18.30;96.40
21895;DHT22;11112;51.270;7.224;2023-09-19T06:45:10;18.40;96.40
21895;DHT22;11112;51.270;7.224;2023-09-19T06:47:39;18.40;96.40
21895;DHT22;11112;51.270;7.224;2023-09-19T06:50:06;18.40;96.50
21895;DHT22;11112;51.270;7.224;2023-09-19T06:52:38;18.40;96.40
21895;DHT22;11112;51.270;7.224;2023-09-19T06:55:08;18.40;96.40
21895;DHT22;11112;51.270;7.224;2023-09-19T06:57:37;18.40;96.40
21895;DHT22;11112;51.270;7.224;2023-09-19T07:00:10;18.40;96.40
21895;DHT22;11112;51.270;7.224;2023-09-19T07:02:44;18.40;96.60
21895;DHT22;11112;51.270;7.224;2023-09-19T07:05:12;18.40;96.70
21895;DHT22;11112;51.270;7.224;2023-09-19T07:07:51;18.40;96.80
21895;DHT22;11112;51.270;7.224;2023-09-19T07:10:18;18.40;96.70
21895;DHT22;11112;51.270;7.224;2023-09-19T07:12:45;18.40;96.60
21895;DHT22;11112;51.270;7.224;2023-09-19T07:15:14;18.40;96.60
21895;DHT22;11112;51.270;7.224;2023-09-19T07:17:42;18.40;96.90
21895;DHT22;11112;51.270;7.224;2023-09-19T07:20:11;18.40;96.90
21895;DHT22;11112;51.270;7.224;2023-09-19T07:22:41;18.40;96.90
21895;DHT22;11112;51.270;7.224;2023-09-19T07:25:09;18.50;96.90
21895;DHT22;11112;51.270;7.224;2023-09-19T07:27:36;18.40;96.90
21895;DHT22;11112;51.270;7.224;2023-09-19T07:30:04;18.40;96.90
21895;DHT22;11112;51.270;7.224;2023-09-19T07:32:35;18.50;97.00
21895;DHT22;11112;51.270;7.224;2023-09-19T07:35:04;18.50;97.00
21895;DHT22;11112;51.270;7.224;2023-09-19T07:37:32;18.50;97.00
21895;DHT22;11112;51.270;7.224;2023-09-19T07:40:00;18.50;96.90
21895;DHT22;11112;51.270;7.224;2023-09-19T07:42:28;18.50;96.90
21895;DHT22;11112;51.270;7.224;2023-09-19T07:44:57;18.50;96.90
21895;DHT22;11112;51.270;7.224;2023-09-19T07:47:25;18.50;96.90
21895;DHT22;11112;51.270;7.224;2023-09-19T07:49:54;18.50;97.00
21895;DHT22;11112;51.270;7.224;2023-09-19T07:52:21;18.60;96.90
21895;DHT22;11112;51.270;7.224;2023-09-19T07:54:49;18.50;96.80
21895;DHT22;11112;51.270;7.224;2023-09-19T07:57:17;18.60;96.80
21895;DHT22;11112;51.270;7.224;2023-09-19T07:59:45;18.60;96.90
21895;DHT22;11112;51.270;7.224;2023-09-19T08:02:12;18.60;96.80
21895;DHT22;11112;51.270;7.224;2023-09-19T08:04:43;18.60;96.70
21895;DHT22;11112;51.270;7.224;2023-09-19T08:07:12;18.60;96.80
21895;DHT22;11112;51.270;7.224;2023-09-19T08:09:40;18.60;96.70
21895;DHT22;11112;51.270;7.224;2023-09-19T08:12:07;18.60;96.70
21895;DHT22;11112;51.270;7.224;2023-09-19T08:14:36;18.70;96.80
21895;DHT22;11112;51.270;7.224;2023-09-19T08:17:03;18.60;96.60
21895;DHT22;11112;51.270;7.224;2023-09-19T08:19:32;18.70;96.70
21895;DHT22;11112;51.270;7.224;2023-09-19T08:22:02;18.60;96.50
21895;DHT22;11112;51.270;7.224;2023-09-19T08:24:31;18.60;96.60
21895;DHT22;11112;51.270;7.224;2023-09-19T08:26:58;18.60;96.60
21895;DHT22;11112;51.270;7.224;2023-09-19T08:29:30;18.60;96.70
21895;DHT22;11112;51.270;7.224;2023-09-19T08:31:59;18.60;96.40
21895;DHT22;11112;51.270;7.224;2023-09-19T08:34:27;18.70;96.70
21895;DHT22;11112;51.270;7.224;2023-09-19T08:36:58;18.70;96.50
21895;DHT22;11112;51.270;7.224;2023-09-19T08:39:26;18.70;96.40
21895;DHT22;11112;51.270;7.224;2023-09-19T08:41:59;18.70;96.40
21895;DHT22;11112;51.270;7.224;2023-09-19T08:44:27;18.70;96.20
21895;DHT22;11112;51.270;7.224;2023-09-19T08:47:04;18.70;96.20
21895;DHT22;11112;51.270;7.224;2023-09-19T08:49:43;18.70;96.20
21895;DHT22;11112;51.270;7.224;2023-09-19T08:52:20;18.70;96.30
21895;DHT22;11112;51.270;7.224;2023-09-19T08:54:52;18.80;96.40
21895;DHT22;11112;51.270;7.224;2023-09-19T08:57:24;18.80;96.10
21895;DHT22;11112;51.270;7.224;2023-09-19T08:59:52;18.80;96.10
21895;DHT22;11112;51.270;7.224;2023-09-19T09:02:20;18.80;95.90
21895;DHT22;11112;51.270;7.224;2023-09-19T09:04:51;18.80;96.40
21895;DHT22;11112;51.270;7.224;2023-09-19T09:07:20;18.90;96.20
21895;DHT22;11112;51.270;7.224;2023-09-19T09:09:49;18.90;95.90
21895;DHT22;11112;51.270;7.224;2023-09-19T09:12:17;18.90;96.10
21895;DHT22;11112;51.270;7.224;2023-09-19T09:14:46;19.00;96.20
21895;DHT22;11112;51.270;7.224;2023-09-19T09:17:14;19.00;95.90
21895;DHT22;11112;51.270;7.224;2023-09-19T09:19:41;19.00;95.80
21895;DHT22;11112;51.270;7.224;2023-09-19T09:22:10;19.00;95.70
21895;DHT22;11112;51.270;7.224;2023-09-19T09:24:51;19.10;95.80
21895;DHT22;11112;51.270;7.224;2023-09-19T09:27:19;19.10;95.70
21895;DHT22;11112;51.270;7.224;2023-09-19T09:29:52;19.20;95.30
21895;DHT22;11112;51.270;7.224;2023-09-19T09:32:22;19.20;94.90
21895;DHT22;11112;51.270;7.224;2023-09-19T09:34:51;19.10;94.70
21895;DHT22;11112;51.270;7.224;2023-09-19T09:37:20;19.20;94.80
21895;DHT22;11112;51.270;7.224;2023-09-19T09:39:51;19.20;94.90
21895;DHT22;11112;51.270;7.224;2023-09-19T09:42:32;19.20;95.10
21895;DHT22;11112;51.270;7.224;2023-09-19T09:45:19;19.20;94.90
21895;DHT22;11112;51.270;7.224;2023-09-19T09:47:54;19.30;94.40
21895;DHT22;11112;51.270;7.224;2023-09-19T09:50:28;19.30;94.40
21895;DHT22;11112;51.270;7.224;2023-09-19T09:56:00;19.20;94.40
21895;DHT22;11112;51.270;7.224;2023-09-19T09:58:31;19.30;94.10
21895;DHT22;11112;51.270;7.224;2023-09-19T10:01:04;19.30;93.70
21895;DHT22;11112;51.270;7.224;2023-09-19T10:03:37;19.30;93.80
21895;DHT22;11112;51.270;7.224;2023-09-19T10:06:11;19.40;93.80
21895;DHT22;11112;51.270;7.224;2023-09-19T10:09:00;19.40;93.60
21895;DHT22;11112;51.270;7.224;2023-09-19T10:11:44;19.50;93.50
21895;DHT22;11112;51.270;7.224;2023-09-19T10:14:15;19.40;93.40
21895;DHT22;11112;51.270;7.224;2023-09-19T10:16:47;19.40;93.30
21895;DHT22;11112;51.270;7.224;2023-09-19T10:19:21;19.40;93.30
21895;DHT22;11112;51.270;7.224;2023-09-19T10:22:00;19.40;93.60
21895;DHT22;11112;51.270;7.224;2023-09-19T10:24:29;19.40;93.50
21895;DHT22;11112;51.270;7.224;2023-09-19T10:26:59;19.40;93.70
21895;DHT22;11112;51.270;7.224;2023-09-19T10:29:29;19.40;93.50
21895;DHT22;11112;51.270;7.224;2023-09-19T10:32:05;19.40;93.30
21895;DHT22;11112;51.270;7.224;2023-09-19T10:34:35;19.40;92.90
21895;DHT22;11112;51.270;7.224;2023-09-19T10:37:04;19.40;92.70
21895;DHT22;11112;51.270;7.224;2023-09-19T10:39:36;19.50;92.70
21895;DHT22;11112;51.270;7.224;2023-09-19T10:42:06;19.50;92.90
21895;DHT22;11112;51.270;7.224;2023-09-19T10:44:38;19.50;92.60
21895;DHT22;11112;51.270;7.224;2023-09-19T10:47:11;19.60;92.40
21895;DHT22;11112;51.270;7.224;2023-09-19T10:49:43;19.60;92.00
21895;DHT22;11112;51.270;7.224;2023-09-19T10:52:14;19.60;91.90
21895;DHT22;11112;51.270;7.224;2023-09-19T10:54:51;19.60;91.80
21895;DHT22;11112;51.270;7.224;2023-09-19T10:57:23;19.60;92.00
21895;DHT22;11112;51.270;7.224;2023-09-19T11:00:03;19.60;91.70
21895;DHT22;11112;51.270;7.224;2023-09-19T11:03:20;19.60;91.70
21895;DHT22;11112;51.270;7.224;2023-09-19T11:06:07;19.60;91.80
21895;DHT22;11112;51.270;7.224;2023-09-19T11:11:50;19.60;91.80
21895;DHT22;11112;51.270;7.224;2023-09-19T11:14:30;19.60;92.20
21895;DHT22;11112;51.270;7.224;2023-09-19T11:20:34;19.70;92.40
21895;DHT22;11112;51.270;7.224;2023-09-19T11:23:21;19.70;92.30
21895;DHT22;11112;51.270;7.224;2023-09-19T11:25:51;19.70;91.70
21895;DHT22;11112;51.270;7.224;2023-09-19T11:28:35;19.80;91.70
21895;DHT22;11112;51.270;7.224;2023-09-19T11:34:43;19.80;91.20
21895;DHT22;11112;51.270;7.224;2023-09-19T11:40:45;19.90;90.90
21895;DHT22;11112;51.270;7.224;2023-09-19T11:43:31;19.80;91.20
21895;DHT22;11112;51.270;7.224;2023-09-19T11:46:05;19.80;90.70
21895;DHT22;11112;51.270;7.224;2023-09-19T11:48:32;19.90;90.70
21895;DHT22;11112;51.270;7.224;2023-09-19T11:51:11;19.90;91.00
21895;DHT22;11112;51.270;7.224;2023-09-19T11:53:50;19.80;90.90
21895;DHT22;11112;51.270;7.224;2023-09-19T11:56:19;19.90;90.80
21895;DHT22;11112;51.270;7.224;2023-09-19T11:58:49;19.90;90.70
21895;DHT22;11112;51.270;7.224;2023-09-19T12:01:23;19.90;90.50
21895;DHT22;11112;51.270;7.224;2023-09-19T12:03:55;19.90;90.60
21895;DHT22;11112;51.270;7.224;2023-09-19T12:06:25;19.90;90.30
21895;DHT22;11112;51.270;7.224;2023-09-19T12:08:54;19.90;90.30
21895;DHT22;11112;51.270;7.224;2023-09-19T12:11:23;19.90;90.20
21895;DHT22;11112;51.270;7.224;2023-09-19T12:13:50;19.90;89.10
21895;DHT22;11112;51.270;7.224;2023-09-19T12:16:20;20.00;89.50
21895;DHT22;11112;51.270;7.224;2023-09-19T12:18:51;20.00;90.00
21895;DHT22;11112;51.270;7.224;2023-09-19T12:21:24;20.00;89.40
21895;DHT22;11112;51.270;7.224;2023-09-19T12:24:12;20.00;89.60
21895;DHT22;11112;51.270;7.224;2023-09-19T12:26:43;20.10;89.90
21895;DHT22;11112;51.270;7.224;2023-09-19T12:29:14;20.10;90.20
21895;DHT22;11112;51.270;7.224;2023-09-19T12:31:48;20.10;90.60
21895;DHT22;11112;51.270;7.224;2023-09-19T12:34:22;20.10;90.50
21895;DHT22;11112;51.270;7.224;2023-09-19T12:37:10;20.10;90.10
21895;DHT22;11112;51.270;7.224;2023-09-19T12:39:44;20.10;88.60
21895;DHT22;11112;51.270;7.224;2023-09-19T12:42:16;20.10;88.30
21895;DHT22;11112;51.270;7.224;2023-09-19T12:44:45;20.10;87.80
21895;DHT22;11112;51.270;7.224;2023-09-19T12:47:14;20.10;88.20
21895;DHT22;11112;51.270;7.224;2023-09-19T12:50:11;20.10;87.50
21895;DHT22;11112;51.270;7.224;2023-09-19T12:52:44;20.10;87.50
21895;DHT22;11112;51.270;7.224;2023-09-19T12:55:23;20.10;87.60
21895;DHT22;11112;51.270;7.224;2023-09-19T12:58:07;20.10;87.00
21895;DHT22;11112;51.270;7.224;2023-09-19T13:00:37;20.10;87.90
21895;DHT22;11112;51.270;7.224;2023-09-19T13:03:17;20.10;87.50
21895;DHT22;11112;51.270;7.224;2023-09-19T13:05:51;20.10;87.70
21895;DHT22;11112;51.270;7.224;2023-09-19T13:08:24;20.20;88.30
21895;DHT22;11112;51.270;7.224;2023-09-19T13:11:07;20.10;87.80
21895;DHT22;11112;51.270;7.224;2023-09-19T13:13:47;20.20;87.30
21895;DHT22;11112;51.270;7.224;2023-09-19T13:16:20;20.20;86.50
21895;DHT22;11112;51.270;7.224;2023-09-19T13:18:50;20.20;86.10
21895;DHT22;11112;51.270;7.224;2023-09-19T13:21:32;20.20;84.40
21895;DHT22;11112;51.270;7.224;2023-09-19T13:24:19;20.20;84.90
21895;DHT22;11112;51.270;7.224;2023-09-19T13:26:48;20.20;84.80
21895;DHT22;11112;51.270;7.224;2023-09-19T13:29:15;20.20;84.70
21895;DHT22;11112;51.270;7.224;2023-09-19T13:31:49;20.20;84.90
21895;DHT22;11112;51.270;7.224;2023-09-19T13:34:16;20.20;85.90
21895;DHT22;11112;51.270;7.224;2023-09-19T13:36:44;20.20;86.50
21895;DHT22;11112;51.270;7.224;2023-09-19T13:39:13;20.30;85.90
21895;DHT22;11112;51.270;7.224;2023-09-19T13:41:41;20.30;86.40
21895;DHT22;11112;51.270;7.224;2023-09-19T13:44:13;20.30;85.80
21895;DHT22;11112;51.270;7.224;2023-09-19T13:46:44;20.30;85.10
21895;DHT22;11112;51.270;7.224;2023-09-19T13:49:12;20.30;85.30
21895;DHT22;11112;51.270;7.224;2023-09-19T13:51:39;20.30;85.30
21895;DHT22;11112;51.270;7.224;2023-09-19T13:54:09;20.30;85.70
21895;DHT22;11112;51.270;7.224;2023-09-19T13:56:38;20.30;86.10
21895;DHT22;11112;51.270;7.224;2023-09-19T13:59:05;20.30;86.70
21895;DHT22;11112;51.270;7.224;2023-09-19T14:01:34;20.40;87.10
21895;DHT22;11112;51.270;7.224;2023-09-19T14:04:01;20.40;86.90
21895;DHT22;11112;51.270;7.224;2023-09-19T14:06:30;20.40;86.90
21895;DHT22;11112;51.270;7.224;2023-09-19T14:08:58;20.40;87.00
21895;DHT22;11112;51.270;7.224;2023-09-19T14:11:26;20.40;87.60
21895;DHT22;11112;51.270;7.224;2023-09-19T14:13:53;20.40;88.20
21895;DHT22;11112;51.270;7.224;2023-09-19T14:16:21;20.40;87.50
21895;DHT22;11112;51.270;7.224;2023-09-19T14:18:51;20.40;87.30
21895;DHT22;11112;51.270;7.224;2023-09-19T14:21:18;20.40;87.40
21895;DHT22;11112;51.270;7.224;2023-09-19T14:23:45;20.40;87.50
21895;DHT22;11112;51.270;7.224;2023-09-19T14:26:13;20.40;87.60
21895;DHT22;11112;51.270;7.224;2023-09-19T14:28:41;20.40;87.80
21895;DHT22;11112;51.270;7.224;2023-09-19T14:31:09;20.40;87.60
21895;DHT22;11112;51.270;7.224;2023-09-19T14:33:37;20.40;87.60
21895;DHT22;11112;51.270;7.224;2023-09-19T14:36:08;20.40;87.90
21895;DHT22;11112;51.270;7.224;2023-09-19T14:38:37;20.40;88.40
21895;DHT22;11112;51.270;7.224;2023-09-19T14:41:05;20.30;88.60
21895;DHT22;11112;51.270;7.224;2023-09-19T14:43:34;20.40;89.10
21895;DHT22;11112;51.270;7.224;2023-09-19T14:46:03;20.40;89.40
21895;DHT22;11112;51.270;7.224;2023-09-19T14:48:30;20.30;89.30
21895;DHT22;11112;51.270;7.224;2023-09-19T14:51:03;20.40;89.10
21895;DHT22;11112;51.270;7.224;2023-09-19T14:53:32;20.30;89.20
21895;DHT22;11112;51.270;7.224;2023-09-19T14:56:00;20.40;89.70
21895;DHT22;11112;51.270;7.224;2023-09-19T14:58:32;20.40;89.90
21895;DHT22;11112;51.270;7.224;2023-09-19T15:01:06;20.40;90.00
21895;DHT22;11112;51.270;7.224;2023-09-19T15:03:36;20.40;90.20
21895;DHT22;11112;51.270;7.224;2023-09-19T15:06:06;20.40;90.20
21895;DHT22;11112;51.270;7.224;2023-09-19T15:08:36;20.40;90.10
21895;DHT22;11112;51.270;7.224;2023-09-19T15:11:06;20.30;90.10
21895;DHT22;11112;51.270;7.224;2023-09-19T15:13:34;20.30;90.30
21895;DHT22;11112;51.270;7.224;2023-09-19T15:16:03;20.30;90.40
21895;DHT22;11112;51.270;7.224;2023-09-19T15:18:34;20.40;90.40
21895;DHT22;11112;51.270;7.224;2023-09-19T15:21:03;20.30;90.40
21895;DHT22;11112;51.270;7.224;2023-09-19T15:23:30;20.30;90.20
21895;DHT22;11112;51.270;7.224;2023-09-19T15:25:59;20.30;90.10
21895;DHT22;11112;51.270;7.224;2023-09-19T15:28:26;20.30;90.10
21895;DHT22;11112;51.270;7.224;2023-09-19T15:30:58;20.30;90.00
21895;DHT22;11112;51.270;7.224;2023-09-19T15:33:26;20.20;89.90
21895;DHT22;11112;51.270;7.224;2023-09-19T15:36:01;20.30;89.90
21895;DHT22;11112;51.270;7.224;2023-09-19T15:38:31;20.20;90.00
21895;DHT22;11112;51.270;7.224;2023-09-19T15:41:00;20.30;90.20
21895;DHT22;11112;51.270;7.224;2023-09-19T15:43:27;20.20;90.20
21895;DHT22;11112;51.270;7.224;2023-09-19T15:45:54;20.20;90.20
21895;DHT22;11112;51.270;7.224;2023-09-19T15:48:21;20.20;90.20
21895;DHT22;11112;51.270;7.224;2023-09-19T15:50:48;20.20;90.10
21895;DHT22;11112;51.270;7.224;2023-09-19T15:53:15;20.20;90.20
21895;DHT22;11112;51.270;7.224;2023-09-19T15:55:43;20.20;90.60
21895;DHT22;11112;51.270;7.224;2023-09-19T15:58:13;20.20;90.30
21895;DHT22;11112;51.270;7.224;2023-09-19T16:00:42;20.20;90.30
21895;DHT22;11112;51.270;7.224;2023-09-19T16:03:10;20.20;90.20
21895;DHT22;11112;51.270;7.224;2023-09-19T16:05:38;20.20;90.30
21895;DHT22;11112;51.270;7.224;2023-09-19T16:08:07;20.20;90.30
21895;DHT22;11112;51.270;7.224;2023-09-19T16:10:35;20.20;90.30
21895;DHT22;11112;51.270;7.224;2023-09-19T16:13:03;20.20;90.30